Aérodrome :
LOGIN :

S'inscrire | Disclaimer

   EN    FR    IT 

 










Légende :    VFR   VFR Marginal   IFR   IFR Intensif   IFR Très Intensif
Visi : 
Plafond : 
>= 8 km
>= 3000ft
5 à 8 km
1000 à 3000 ft
1500m à 5 km
500 à 1000 ft
800 à 1500m
200 à 500 ft
< 800m
< 200 ft
Symboles :   Orages  Brouillard  Fortes neiges  Fortes précipitations  Vent > 20 kt
SIGMETs :   Divers  Orages  Givrage  Turbulence  Onde Orograph.  Cendres Volcan.






- Altitude de l'aérodrome : 295 ft
- Code IATA : BWE


EDVE - Braunschweig

DERNIER METAR :
  • 221520Z 26022KT 9999 BKN035 BKN040 OVC048 11/04 Q1013

METARs EXPIRÉS :
  • 221450Z 26024G35KT 9999 BKN036 OVC052 11/03 Q1013
  • 221420Z 25021G31KT 9999 OVC039 11/01 Q1013
  • 221350Z 26025G35KT 9999 BKN041 BKN059 12/01 Q1013
  • 221320Z 27020KT 9999 BKN042 BKN059 12/01 Q1013
  • 221250Z 26019KT 9999 OVC044 12/M00 Q1012

TAF TAF EDVE
Valide du 22 à 15h jusqu'au 22 à 21h UTC


221400Z 2215/2221 25020G35KT 9999 BKN035
TEMPO 2215/2218 26025G40KT
PROB30
TEMPO 2215/2218 25030G45KT
PROB30
TEMPO 2218/2221 SHRA BKN012CB
BECMG 2218/2221 27015G30KT



MET'MAP, la Météo Aéronautique d'un coup d'oeil ! - Copyright ORBIFLY Décembre 2007 - Disclaimer

ORBIFLY MET'MAP TEAM :

Programmation & Développement : Alexandra Zaïnal
Sur une idée originale de : Baudouin d'Aumeries
Assistance à la programmation : Marc-Olivier Méhu
Soutien technique & logistique : Manuel Goepfert

Contact : metmap@orbifly.com




SOURCES & CREDITS :

   NOAA